Time;durP1;ratioP1;P1;durP2;ratioP2;P2;SDS_P1;SDS_P2;PMS_P1;PMS_P2;Temp;Humidity;BMP_temperature;BMP_pressure;BME280_temperature;BME280_humidity;BME280_pressure;Samples;Min_cycle;Max_cycle;Signal;HPM_P1;HPM_P2
2021/04/05 07:03:35;;;;;;;13.00;10.70;;;;;;;;;;12825960;23;20028;-88
2021/04/05 07:08:39;;;;;;;;;;;;;;;;;;12801709;23;20023;-88
2021/04/05 07:19:39;;;;;;;14.57;10.93;;;;;;;;;;12807809;23;20017;-88
2021/04/05 07:25:31;;;;;;;5.88;4.55;;;;;;;;;;12807361;23;20013;-88
2021/04/05 07:30:54;;;;;;;3.00;1.90;;;;;;;;;;12773780;23;20039;-89
2021/04/05 07:36:15;;;;;;;11.93;3.42;;;;;;;;;;12781401;23;20016;-88
2021/04/05 08:04:11;;;;;;;2.55;1.00;;;;;;;;;;12812854;23;20076;-88
2021/04/05 08:54:22;;;;;;;3.75;0.98;;;;;;;;;;12812415;23;20386;-88
2021/04/05 09:05:10;;;;;;;3.47;1.17;;;;;;;;;;12804573;23;20029;-87
2021/04/05 09:10:33;;;;;;;2.70;1.30;;;;;;;;;;12820406;23;20029;-88
2021/04/05 10:23:58;;;;;;;4.05;1.20;;;;;;;;;;12836764;23;20010;-89
2021/04/05 10:29:08;;;;;;;3.92;1.08;;;;;;;;;;12807847;23;20010;-88
2021/04/05 10:34:25;;;;;;;0.95;0.63;;;;;;;;;;12671611;23;20035;-88
2021/04/05 10:39:29;;;;;;;1.60;0.75;;;;;;;;;;12810599;23;20056;-87
2021/04/05 11:41:52;;;;;;;2.95;0.85;;;;;;;;;;12754213;23;20021;-87
2021/04/05 11:46:54;;;;;;;4.22;1.10;;;;;;;;;;12752030;23;20006;-85
2021/04/05 11:52:09;;;;;;;3.58;1.27;;;;;;;;;;12777375;23;19998;-85
2021/04/05 11:57:16;;;;;;;5.40;1.52;;;;;;;;;;12771769;23;20029;-84
2021/04/05 12:02:28;;;;;;;3.92;1.20;;;;;;;;;;12747435;23;20006;-85
2021/04/05 12:07:30;;;;;;;2.30;1.00;;;;;;;;;;12776895;23;20084;-86
2021/04/05 12:12:36;;;;;;;2.78;1.10;;;;;;;;;;12780256;23;20009;-86
2021/04/05 12:17:47;;;;;;;4.32;1.65;;;;;;;;;;12789335;23;20066;-84
2021/04/05 12:22:58;;;;;;;4.43;1.30;;;;;;;;;;12734079;23;20342;-86
2021/04/05 12:28:00;;;;;;;6.90;4.85;;;;;;;;;;12767755;23;20346;-85
2021/04/05 12:33:02;;;;;;;2.65;0.77;;;;;;;;;;12746652;23;20411;-86
2021/04/05 12:38:04;;;;;;;1.42;0.60;;;;;;;;;;12747013;23;20010;-86
2021/04/05 12:43:10;;;;;;;2.08;0.75;;;;;;;;;;12748160;23;20064;-86
2021/04/05 12:48:12;;;;;;;1.95;0.80;;;;;;;;;;12747414;23;20005;-86
2021/04/05 12:53:13;;;;;;;4.57;1.00;;;;;;;;;;12749687;23;20006;-86
2021/04/05 12:58:15;;;;;;;1.77;0.68;;;;;;;;;;12761834;23;20001;-87
2021/04/05 13:03:30;;;;;;;3.30;0.95;;;;;;;;;;12789781;23;20029;-85
2021/04/05 13:08:31;;;;;;;3.58;1.02;;;;;;;;;;12772675;23;20002;-86
2021/04/05 13:13:37;;;;;;;4.72;0.82;;;;;;;;;;12771406;23;20025;-85
2021/04/05 13:18:41;;;;;;;4.10;1.02;;;;;;;;;;12746925;23;20001;-85
2021/04/05 13:23:47;;;;;;;2.22;0.90;;;;;;;;;;12742364;23;20057;-85
2021/04/05 13:28:49;;;;;;;1.60;0.73;;;;;;;;;;12741717;23;20438;-86
2021/04/05 13:33:52;;;;;;;1.70;0.63;;;;;;;;;;12744219;23;20009;-86
2021/04/05 13:38:57;;;;;;;2.80;1.13;;;;;;;;;;12746542;23;20009;-86
2021/04/05 13:43:59;;;;;;;3.55;1.10;;;;;;;;;;12744436;23;20013;-84
2021/04/05 13:49:04;;;;;;;1.50;0.60;;;;;;;;;;12775234;23;20072;-85
2021/04/05 13:54:06;;;;;;;1.40;0.50;;;;;;;;;;12750609;23;20013;-85
2021/04/05 13:59:13;;;;;;;1.65;0.50;;;;;;;;;;12745600;23;19998;-84
2021/04/05 14:04:14;;;;;;;2.20;0.70;;;;;;;;;;12746774;23;20013;-85
2021/04/05 14:09:16;;;;;;;2.63;0.90;;;;;;;;;;12746419;23;20005;-84
2021/04/05 14:14:20;;;;;;;2.17;1.00;;;;;;;;;;12745845;23;20064;-85
2021/04/05 14:19:30;;;;;;;2.95;0.93;;;;;;;;;;12750414;23;20346;-85
2021/04/05 14:24:33;;;;;;;3.10;1.05;;;;;;;;;;12749390;23;20036;-85
2021/04/05 14:29:55;;;;;;;2.00;0.80;;;;;;;;;;12748544;23;20016;-86
2021/04/05 14:34:57;;;;;;;3.50;1.38;;;;;;;;;;12749778;23;20065;-85
2021/04/05 14:40:04;;;;;;;1.38;0.68;;;;;;;;;;12747934;23;20029;-85
2021/04/05 14:45:07;;;;;;;2.38;0.90;;;;;;;;;;12748722;23;20009;-86
2021/04/05 14:50:15;;;;;;;2.28;0.80;;;;;;;;;;12745793;23;20081;-85
2021/04/05 14:55:18;;;;;;;2.20;0.80;;;;;;;;;;12747760;23;20009;-84
2021/04/05 15:00:32;;;;;;;4.13;0.88;;;;;;;;;;12773278;23;20382;-85
2021/04/05 15:05:44;;;;;;;3.85;0.95;;;;;;;;;;12751667;23;20045;-85
2021/04/05 15:10:46;;;;;;;1.65;0.80;;;;;;;;;;12778309;23;20048;-83
2021/04/05 15:15:51;;;;;;;1.98;0.80;;;;;;;;;;12755494;23;20040;-86
2021/04/05 15:20:53;;;;;;;1.63;0.70;;;;;;;;;;12755456;23;20008;-85
2021/04/05 15:25:57;;;;;;;2.30;1.05;;;;;;;;;;12767625;23;20020;-85
2021/04/05 15:30:59;;;;;;;2.67;0.90;;;;;;;;;;12767524;23;20033;-85
2021/04/05 15:36:01;;;;;;;1.60;0.65;;;;;;;;;;12749877;23;20005;-86
2021/04/05 15:41:04;;;;;;;3.08;1.80;;;;;;;;;;12750418;23;20013;-86
2021/04/05 15:46:06;;;;;;;2.20;0.60;;;;;;;;;;12749933;23;20415;-85
2021/04/05 15:51:27;;;;;;;1.73;0.70;;;;;;;;;;12750345;23;20009;-86
2021/04/05 15:56:32;;;;;;;2.20;0.70;;;;;;;;;;12732460;23;20025;-85
2021/04/05 16:01:33;;;;;;;2.45;0.75;;;;;;;;;;12749170;23;20008;-84
2021/04/05 16:06:38;;;;;;;2.03;0.60;;;;;;;;;;12745489;23;20545;-85
2021/04/05 16:11:49;;;;;;;2.42;0.70;;;;;;;;;;12743659;23;20084;-84
2021/04/05 16:16:51;;;;;;;2.20;0.90;;;;;;;;;;12747227;23;20062;-87
2021/04/05 16:21:55;;;;;;;1.67;0.50;;;;;;;;;;12749198;23;20006;-84
2021/04/05 16:27:02;;;;;;;1.42;0.57;;;;;;;;;;12747840;23;20056;-83
2021/04/05 16:32:11;;;;;;;2.63;0.95;;;;;;;;;;12757277;23;20011;-84
2021/04/05 16:37:23;;;;;;;2.03;0.80;;;;;;;;;;12788458;23;20031;-86
2021/04/05 16:42:26;;;;;;;2.50;0.77;;;;;;;;;;12783338;23;20085;-84
2021/04/05 16:47:32;;;;;;;1.95;0.80;;;;;;;;;;12768508;23;20016;-85
2021/04/05 16:52:34;;;;;;;1.15;0.60;;;;;;;;;;12753667;23;20006;-85
2021/04/05 16:57:45;;;;;;;1.92;0.80;;;;;;;;;;12751128;23;20013;-87
2021/04/05 17:02:54;;;;;;;2.33;0.73;;;;;;;;;;12748762;23;20006;-86
2021/04/05 17:07:59;;;;;;;2.63;0.80;;;;;;;;;;12748504;23;20010;-85
2021/04/05 17:13:01;;;;;;;1.80;0.88;;;;;;;;;;12744778;23;20037;-86
2021/04/05 17:18:03;;;;;;;1.45;0.70;;;;;;;;;;12746832;23;20001;-87
2021/04/05 17:23:33;;;;;;;1.60;0.70;;;;;;;;;;12747240;23;20334;-86
2021/04/05 17:28:34;;;;;;;;;;;;;;;;;;12770501;23;20028;-85
2021/04/05 17:33:41;;;;;;;2.03;0.80;;;;;;;;;;12773545;23;20240;-84
2021/04/05 17:39:01;;;;;;;2.50;0.80;;;;;;;;;;12766721;23;20016;-88
2021/04/05 17:44:05;;;;;;;1.40;0.70;;;;;;;;;;12728413;23;20027;-88
2021/04/05 17:49:25;;;;;;;1.90;0.90;;;;;;;;;;12743238;23;20009;-88
2021/04/05 17:54:49;;;;;;;2.63;0.98;;;;;;;;;;12756693;23;20013;-87
2021/04/05 17:59:53;;;;;;;1.85;1.10;;;;;;;;;;12747224;23;20016;-89
2021/04/05 18:05:04;;;;;;;1.55;0.73;;;;;;;;;;12744468;23;20057;-88
2021/04/05 18:10:14;;;;;;;3.63;0.95;;;;;;;;;;12731403;23;19986;-87
2021/04/05 18:15:20;;;;;;;2.20;1.00;;;;;;;;;;12734864;23;20005;-87
2021/04/05 18:20:31;;;;;;;4.20;0.93;;;;;;;;;;12726450;23;20089;-87
2021/04/05 18:25:34;;;;;;;3.53;0.93;;;;;;;;;;12727724;23;20061;-88
2021/04/05 18:30:47;;;;;;;1.67;0.80;;;;;;;;;;12761494;23;19985;-87
2021/04/05 18:35:56;;;;;;;4.65;1.20;;;;;;;;;;12789878;23;20049;-88
2021/04/05 18:40:58;;;;;;;2.08;0.75;;;;;;;;;;12734411;23;20020;-89
2021/04/05 18:46:02;;;;;;;2.90;1.20;;;;;;;;;;12755613;23;20004;-86
2021/04/05 18:51:08;;;;;;;2.33;0.82;;;;;;;;;;12751373;23;19997;-87
2021/04/05 18:56:10;;;;;;;4.60;1.08;;;;;;;;;;12723686;23;20336;-87
2021/04/05 19:01:14;;;;;;;3.00;0.85;;;;;;;;;;12749684;23;20105;-87
2021/04/05 19:06:15;;;;;;;2.60;0.90;;;;;;;;;;12732215;23;20019;-88
2021/04/05 19:11:25;;;;;;;1.58;0.80;;;;;;;;;;12748031;23;20438;-87
2021/04/05 19:16:40;;;;;;;2.73;0.70;;;;;;;;;;12760801;23;20032;-88
2021/04/05 19:22:07;;;;;;;1.90;0.80;;;;;;;;;;12752102;23;20222;-88
2021/04/05 19:27:11;;;;;;;3.42;1.00;;;;;;;;;;12717340;23;20009;-87
2021/04/05 19:32:31;;;;;;;1.98;0.93;;;;;;;;;;12724857;23;20012;-88
2021/04/05 19:37:45;;;;;;;2.33;0.88;;;;;;;;;;12726346;23;20053;-87
2021/04/05 19:43:09;;;;;;;1.63;0.70;;;;;;;;;;12738041;23;20021;-87
2021/04/05 19:59:51;;;;;;;2.08;0.88;;;;;;;;;;12751333;23;20005;-87
2021/04/05 20:05:02;;;;;;;1.52;0.80;;;;;;;;;;12756737;23;20036;-86
2021/04/05 20:10:03;;;;;;;3.33;1.17;;;;;;;;;;12737504;23;20005;-86
2021/04/05 20:15:09;;;;;;;1.83;0.80;;;;;;;;;;12745491;23;20434;-86
2021/04/05 20:20:15;;;;;;;2.72;1.17;;;;;;;;;;12762600;23;20005;-86
